Terminal Aerodrome Forecast
Issued by NWS

Home | Current Version | Previous Version | Text Only | Print | Product List | Glossary On
Versions: 1 2 3 4 5 6 7 8 9 10 11 12 13 14
897
FTUS46 KSEW 130520
TAFBLI
TAF
KBLI 130520Z 1306/1406 00000KT P6SM BKN200
     FM130800 00000KT 1SM BR SCT001
     FM131500 VRB03KT P6SM SKC=

USA.gov is the U.S. government's official web portal to all federal, state and local government web resources and services.